Weather observations for the past three days for
Sylvania, Plantation Airpark
Imperial (Metric)
Date Time (edt) Wind (mph) Vis. (mi.) Weather Sky Cond. Temperature (ºF) Relative Humidity Wind Chill (°F) Heat Index (°F) Pressure Precipitation (in)
Air Dwpt 6 hour altimeter (in) sea level (mb) 1 hr 3 hr 6 hr
Max. Min.
07 21:35 Calm 7.00 NULL NULL 68.2 68.2 100% 29.88 0.0
07 21:15 Calm 7.00 NULL NULL 68.5 68.5 100% 29.87 0.0
07 20:55 Calm 5.00 Fog/Mist NULL 69.8 69.8 100% 29.87 0.0
07 20:35 W 3 5.00 Fog/Mist NULL 70.7 70.7 100% 29.86 0.0
07 20:15 W 5 5.00 Fog/Mist NULL 71.2 71.2 100% 29.86 0.0
07 19:55 W 3 5.00 Fog/Mist NULL 71.8 71.8 75.6 71.4 100% 29.86 0.0 0.02
07 19:35 W 7 5.00 Fog/Mist NULL 72.1 72.1 100% 29.85 0.0
07 19:15 NW 8 5.00 Fog/Mist NULL 71.8 71.8 100% 29.85 0.0
07 18:55 NW 9 5.00 Fog/Mist NULL 72.5 72.5 100% 29.85 0.0
07 18:35 NW 12 5.00 Fog/Mist NULL 72.1 72.1 100% 29.85 0.0
07 18:15 NW 15 5.00 Fog/Mist NULL 72.5 72.5 100% 29.84 0.0
07 17:55 NW 12 G 16 4.00 Fog/Mist NULL 73.4 73.4 100% 29.84 0.0
07 17:35 NW 10 4.00 Fog/Mist NULL 72.9 72.9 100% 29.84 0.0
07 17:15 NW 9 4.00 Fog/Mist NULL 72.9 72.9 100% 29.84 0.0
07 16:35 N 3 4.00 Fog/Mist NULL 72.7 72.7 100% 29.84 0.0
07 16:15 W 5 5.00 Fog/Mist NULL 72.3 72.3 100% 29.84 0.0
07 15:55 W 3 7.00 Light Rain NULL 71.4 71.4 100% 29.84 0.0 0.02
07 15:35 W 3 10.00 Rain SCT028 BKN035 OVC055 71.6 71.6 100% 29.85 0.0 0.02
07 15:15 W 7 7.00 Light Rain OVC033 71.8 71.8 100% 29.86 0.0 0.01
07 14:55 W 7 7.00 Light Rain NULL 73.2 71.4 94% 29.86 0.0
07 14:35 W 10 G 22 7.00 Thunderstorm Light Rain in Vicinity NULL 73.9 71.1 91% 29.86 0.0
07 14:15 W 16 G 36 4.00 Haze NULL 75.4 69.3 81% 76 29.86 0.0
07 13:55 W 21 G 29 4.00 Haze and Breezy NULL 74.5 68.4 75.6 63.7 81% 29.85 0.0 0.02
07 13:35 W 12 G 28 5.00 Haze NULL 74.3 67.6 80% 29.86 0.0
07 13:15 W 10 G 28 4.00 Haze NULL 75 68 79% 76 29.84 0.0
07 12:55 W 16 G 22 4.00 Haze NULL 74.5 68.7 82% 29.85 0.0
07 12:35 W 9 5.00 Haze NULL 73.8 69.1 85% 29.86 0.0
07 12:15 SW 10 G 17 4.00 Fog/Mist NULL 72.1 68.4 88% 29.87 0.0
07 11:55 SW 7 5.00 Fog/Mist NULL 71.6 68.7 91% 29.89 0.0
07 11:35 SW 6 5.00 Fog/Mist NULL 70.7 69.4 96% 29.9 0.0
07 11:15 W 5 4.00 Fog/Mist NULL 69.8 69.1 98% 29.92 0.0
07 10:55 W 7 4.00 Fog/Mist NULL 69.6 69.4 99% 29.91 0.0 0.02
07 10:35 W 6 4.00 Fog/Mist CLR 68.5 68.5 100% 29.9 0.0
07 10:15 SW 5 4.00 Fog/Mist CLR 68 68 100% 29.89 0.0
07 09:55 SW 7 4.00 Fog/Mist CLR 67.3 67.3 100% 29.89 0.0
07 09:35 SW 12 G 18 5.00 Fog/Mist NULL 66.2 66.2 100% 29.9 0.0
07 09:15 SW 8 3.00 Fog/Mist NULL 64.9 64.9 100% 29.89 0.0
07 08:55 SW 6 5.00 Light Rain NULL 63.9 63.9 100% 29.88 0.0 0.02
07 08:35 W 8 7.00 Rain NULL 64.4 64.4 100% 29.9 0.0 0.01
07 08:15 W 6 5.00 Fog/Mist NULL 64.4 64.4 100% 29.89 0.0
07 07:55 SW 5 5.00 Fog/Mist NULL 64 64 71.1 63.9 100% 29.89 0.0 0.21
07 07:35 W 3 5.00 Fog/Mist NULL 64.4 64.4 100% 29.9 0.0
07 07:15 SW 6 7.00 Light Rain NULL 64.8 64.8 100% 29.88 0.0
07 06:55 SW 8 G 17 10.00 Light Rain NULL 65.1 65.1 100% 29.91 0.0 0.04
07 06:35 SW 10 10.00 Rain NULL 64.8 64.8 100% 29.93 0.0 0.04
07 06:15 SW 5 10.00 Light Rain NULL 64.9 64.9 100% 29.95 0.0 0.02
07 05:55 SW 6 10.00 Rain NULL 65.3 65.3 100% 29.94 0.0 0.15
07 05:35 NW 3 5.00 Heavy Rain NULL 65.7 65.7 100% 29.97 0.0 0.11
07 05:15 NW 12 5.00 Thunderstorm Rain in Vicinity NULL 66.4 66.4 100% 30.01 0.0 0.04
07 04:55 NW 12 10.00 Thunderstorm Rain in Vicinity NULL 67.8 67.8 100% 29.99 0.0 0.02 0.02
07 04:35 NW 5 10.00 Light Rain NULL 68 68 100% 29.95 0.0
07 04:15 Calm 10.00 Thunderstorm Light Rain NULL 68.5 68.4 99% 29.91 0.0
07 03:55 Calm 5.00 Light Rain NULL 68.9 67.1 94% 29.92 0.0
07 03:35 W 3 5.00 Fog/Mist NULL 69.4 66.2 90% 29.91 0.0
07 03:15 Calm 7.00 NULL NULL 69.8 65.8 87% 29.9 0.0
07 02:55 SW 3 5.00 Fog/Mist NULL 70.3 65.7 85% 29.91 0.0
07 02:35 S 5 5.00 Fog/Mist NULL 70.2 65.7 86% 29.9 0.0
07 02:15 S 5 7.00 Light Rain NULL 70.7 65.3 83% 29.91 0.0
07 01:55 S 6 7.00 NULL NULL 70.9 65.3 80.6 70.9 83% 29.91 0.0
07 01:35 SW 5 7.00 NULL NULL 71.2 65.5 82% 29.94 0.0
07 01:15 SW 3 10.00 NULL NULL 71.6 65.7 82% 29.94 0.0
07 00:55 S 3 10.00 NULL NULL 72 66 82% 29.95 0.0
07 00:35 S 3 10.00 NULL NULL 72.3 66.2 81% 29.95 0.0
07 00:15 SW 5 10.00 Fair CLR 72.5 66.6 82% 29.95 0.0
06 23:55 S 3 10.00 Fair CLR 73 67.1 82% 29.94 0.0
06 23:35 S 5 7.00 NULL NULL 73.4 67.1 81% 29.94 0.0
06 23:15 SW 6 5.00 Haze NULL 73.8 67.1 80% 29.94 0.0
06 22:55 S 5 7.00 NULL NULL 74.1 67.1 79% 29.94 0.0
06 22:35 S 6 7.00 NULL NULL 74.1 67.1 79% 29.93 0.0
06 22:15 S 5 7.00 Fair CLR 74.5 67.3 78% 29.92 0.0
06 21:55 S 9 10.00 Fair CLR 75.2 67.3 77% 76 29.92 0.0
06 21:35 S 5 7.00 NULL NULL 75.6 67.1 75% 77 29.92 0.0
06 21:15 S 7 7.00 NULL NULL 76.5 66.6 72% 78 29.93 0.0
06 20:55 S 7 10.00 NULL NULL 77.2 65.5 67% 79 29.92 0.0
06 20:35 S 6 10.00 NULL NULL 78.4 61.3 56% 80 29.93 0.0
06 20:15 Calm 10.00 Partly Cloudy SCT090 79.7 61.3 54% 81 29.94 0.0
06 19:55 SW 3 10.00 Fair CLR 80.6 61 87.6 80.6 51% 81 29.93 0.0
06 19:35 W 5 10.00 NULL NULL 81.7 60.6 49% 82 29.93 0.0
06 19:15 W 3 10.00 NULL NULL 83.1 60.4 46% 83 29.92 0.0
06 18:55 W 5 10.00 NULL NULL 83.7 60.1 45% 84 29.92 0.0
06 18:35 W 9 10.00 NULL NULL 84.2 60.1 44% 84 29.92 0.0
06 18:15 W 7 10.00 NULL NULL 84.6 60.3 44% 85 29.93 0.0
06 17:55 W 10 10.00 NULL NULL 84.9 60.8 44% 85 29.93 0.0
06 17:35 SW 7 10.00 NULL NULL 86 60.8 43% 86 29.92 0.0
06 17:15 W 8 10.00 NULL NULL 86.7 60.4 41% 87 29.92 0.0
06 16:55 SW 8 10.00 NULL NULL 86.5 60.8 42% 87 29.93 0.0
06 16:35 SW 9 10.00 NULL NULL 85.6 60.6 43% 86 29.94 0.0
06 16:15 W 7 10.00 NULL NULL 86.2 60.4 42% 86 29.95 0.0
06 15:55 W 6 10.00 NULL NULL 86.7 60.4 41% 87 29.95 0.0
06 15:35 W 7 10.00 NULL NULL 86.2 60.1 41% 86 29.96 0.0
06 15:15 W 7 5.00 Fair with Haze CLR 85.8 59.9 42% 86 29.97 0.0
06 14:55 W 7 4.00 Fair with Haze CLR 84.9 59.2 42% 85 29.98 0.0
06 14:35 W 7 4.00 Fair with Haze CLR 84.4 59 42% 84 29.99 0.0
06 14:15 W 3 5.00 Haze NULL 83.7 59 43% 83 30 0.0
06 13:55 W 8 G 16 4.00 Haze NULL 82.9 58.6 83.7 60.6 44% 83 30.01 0.0
06 13:35 W 8 7.00 NULL NULL 82.4 59.2 45% 83 30.01 0.0
06 13:15 SW 9 5.00 Haze NULL 81.7 59.2 46% 82 30.02 0.0
06 12:55 W 6 7.00 NULL NULL 80.4 59.5 49% 81 30.04 0.0
06 12:35 SW 13 G 17 10.00 NULL NULL 79.3 59.4 51% 80 30.04 0.0
06 12:15 W 9 10.00 NULL NULL 77 59.5 55% 79 30.05 0.0
06 11:55 W 6 10.00 NULL NULL 76.1 59.2 56% 78 30.05 0.0
06 11:35 SW 10 10.00 NULL NULL 76.1 59 56% 78 30.04 0.0
06 11:15 W 7 10.00 Mostly Cloudy BKN080 75.9 59.5 57% 78 30.04 0.0
06 10:55 SW 3 7.00 Overcast OVC080 74.5 60.3 61% 30.04 0.0
06 10:35 W 5 7.00 Overcast OVC080 72.1 59.7 65% 30.05 0.0
06 10:15 SW 5 10.00 NULL NULL 71.8 59.7 66% 30.04 0.0
06 09:55 Calm 10.00 NULL NULL 70.9 59.4 67% 30.04 0.0
06 09:35 W 7 7.00 NULL NULL 69.8 59.4 70% 30.04 0.0
06 09:15 W 6 7.00 NULL NULL 68 59 73% 30.04 0.0
06 08:55 W 5 10.00 NULL NULL 66 59.2 79% 30.04 0.0
06 08:35 SW 5 10.00 NULL NULL 64.2 59.2 84% 30.03 0.0
06 08:15 W 5 10.00 NULL NULL 62.1 59 90% 30.02 0.0
06 07:55 Calm 10.00 NULL NULL 60.4 59.2 60.4 56.7 96% 30.02 0.0
06 07:35 SW 5 10.00 NULL NULL 59.2 59.2 100% 30.01 0.0
06 07:15 SW 3 10.00 NULL NULL 58.3 58.3 100% 30.01 0.0
06 06:55 SW 3 5.00 Fog/Mist NULL 57.2 57.2 100% 30 0.0
06 06:35 Calm 7.00 NULL NULL 56.8 56.8 100% 29.99 0.0
06 06:15 Calm 10.00 NULL NULL 57 57 100% 30 0.0
06 05:55 Calm 10.00 NULL NULL 57.2 57.2 100% 30 0.0
06 05:35 Calm 10.00 NULL NULL 57.2 57.2 100% 30 0.0
06 05:15 Calm 7.00 NULL NULL 57.4 57.4 100% 30 0.0
06 04:55 Calm 10.00 NULL NULL 57.6 57.6 100% 30.01 0.0
06 04:35 Calm 10.00 NULL NULL 58.1 58.1 100% 30.01 0.0
06 04:15 Calm 10.00 NULL NULL 58.5 58.5 100% 30.01 0.0
06 03:55 Calm 10.00 NULL NULL 58.8 58.8 100% 30 0.0
06 03:35 Calm 10.00 NULL NULL 58.6 58.6 100% 30 0.0
06 03:15 Calm 10.00 NULL NULL 58.6 58.6 100% 30 0.0
06 02:55 S 3 7.00 NULL NULL 58.8 58.6 99% 30.01 0.0
06 02:35 S 5 7.00 NULL NULL 59 58.1 97% 30 0.0
06 01:55 S 3 7.00 NULL NULL 59.2 57.6 70.7 58.8 94% 30.01 0.0
06 01:35 S 3 10.00 NULL NULL 59.2 57.2 93% 30.02 0.0
06 01:15 S 3 7.00 NULL NULL 59.4 56.8 91% 30.03 0.0
06 00:55 Calm 7.00 NULL NULL 58.8 57.2 94% 30.03 0.0
06 00:35 Calm 7.00 NULL NULL 59.4 56.5 90% 30.03 0.0
06 00:15 Calm 7.00 NULL NULL 60.3 56.3 87% 30.03 0.0
05 23:55 Calm 7.00 NULL NULL 60.8 55.8 84% 30.03 0.0
05 23:35 Calm 7.00 NULL NULL 60.8 55.2 82% 30.03 0.0
05 23:15 Calm 10.00 NULL NULL 61.7 54.7 78% 30.03 0.0
05 22:55 Calm 7.00 NULL NULL 62.1 54.5 76% 30.03 0.0
05 22:15 Calm 7.00 NULL NULL 63.7 54 71% 30.03 0.0
05 21:55 S 5 5.00 Haze NULL 64.6 54 69% 30.02 0.0
05 21:35 S 5 7.00 NULL NULL 65.7 54.1 67% 30.01 0.0
05 21:15 S 5 7.00 NULL NULL 66.4 54.7 66% 30.01 0.0
05 20:55 S 6 10.00 NULL NULL 67.3 55.6 66% 30.01 0.0
05 20:35 S 8 5.00 Haze NULL 68.4 55.8 64% 30 0.0
05 20:15 S 8 7.00 NULL NULL 69.4 56.3 63% 29.99 0.0
05 19:55 S 10 5.00 Fair with Haze CLR 70.9 57 81 70.9 62% 29.98 0.0
05 19:35 S 8 G 17 5.00 Fair with Haze CLR 72.5 57.9 60% 29.98 0.0
05 19:15 S 10 4.00 Fair with Haze CLR 73.8 58.1 58% 29.98 0.0
05 18:55 S 10 5.00 Fair with Haze CLR 75.2 58.3 56% 78 29.99 0.0
05 18:35 S 9 4.00 Partly Cloudy with Haze SCT080 76.3 58.1 53% 78 29.98 0.0
05 18:15 S 12 G 16 5.00 Partly Cloudy with Haze SCT080 77.2 57.6 51% 79 29.98 0.0
05 17:55 S 10 5.00 Haze NULL 78.6 55.2 45% 79 29.97 0.0
05 17:35 S 9 4.00 Haze NULL 79.2 52.7 40% 79 29.98 0.0
05 17:15 SW 3 5.00 Haze NULL 79.2 50.9 37% 79 29.98 0.0
05 16:55 SW 8 5.00 Haze NULL 79.2 51.1 38% 79 29.98 0.0
05 16:35 Calm 4.00 Haze NULL 80.1 51.3 37% 80 29.98 0.0
05 16:15 S 5 4.00 Haze NULL 79.9 51.8 38% 80 29.99 0.0
05 15:55 S 3 4.00 Haze NULL 79.7 51.1 37% 79 30 0.0
05 15:35 SW 6 5.00 Haze NULL 79.5 50.7 37% 79 30.01 0.0
05 15:15 W 3 5.00 Haze NULL 80.2 51.4 37% 80 30.02 0.0
05 14:55 SW 3 5.00 Haze NULL 79.7 51.3 37% 80 30.03 0.0
05 14:35 Calm 10.00 NULL NULL 79.5 52 38% 79 30.04 0.0
05 14:15 SW 5 10.00 NULL NULL 77.9 50.9 39% 79 30.04 0.0
05 13:55 Calm 7.00 NULL NULL 77.4 51.1 77.9 54.3 40% 78 30.04 0.0
05 13:35 NW 3 7.00 NULL NULL 77.9 52.7 42% 79 30.04 0.0
05 13:15 S 7 10.00 NULL NULL 77.2 52.9 43% 78 30.05 0.0
05 12:55 S 7 10.00 NULL NULL 77.2 52.3 42% 78 30.05 0.0
05 12:35 S 7 10.00 Partly Cloudy SCT055 76.1 54.1 47% 78 30.06 0.0
05 12:15 S 8 10.00 Partly Cloudy SCT048 SCT055 75.7 54.3 47% 78 30.06 0.0
05 11:55 S 8 10.00 NULL NULL 74.7 55.8 52% 30.07 0.0
05 11:35 W 3 10.00 NULL NULL 73.6 55.8 54% 30.08 0.0
05 11:15 SW 5 10.00 NULL NULL 72.5 55.9 56% 30.08 0.0
05 10:55 S 3 10.00 NULL NULL 71.8 55.6 57% 30.08 0.0
05 10:35 SW 7 10.00 NULL NULL 71.2 55.4 57% 30.07 0.0
05 10:15 S 6 10.00 NULL NULL 69.8 55.6 61% 30.07 0.0
05 09:55 SW 5 10.00 NULL NULL 68.2 54.9 63% 30.07 0.0
05 09:35 SW 5 10.00 NULL NULL 66.9 55.6 67% 30.07 0.0
05 09:15 SW 5 10.00 NULL NULL 65.7 56.3 72% 30.07 0.0
05 08:55 Calm 10.00 NULL NULL 63.5 56.7 79% 30.06 0.0
05 08:35 Calm 10.00 NULL NULL 60.4 58.1 92% 30.06 0.0
05 08:15 Calm 10.00 NULL NULL 57.9 57.7 99% 30.06 0.0
05 07:55 Calm 10.00 NULL NULL 54.1 54.1 57.7 48.9 100% 30.06 0.0
05 07:35 Calm 10.00 NULL NULL 51.8 51.8 100% 30.06 0.0
05 07:15 Calm 10.00 NULL NULL 50 50 100% 30.05 0.0
05 06:55 Calm 10.00 NULL NULL 50 50 100% 30.04 0.0
05 06:35 Calm 10.00 NULL NULL 49.3 49.3 100% 30.04 0.0
05 06:15 Calm 10.00 NULL NULL 49.5 49.5 100% 30.04 0.0
05 05:55 Calm 10.00 NULL NULL 50 50 100% 30.03 0.0
05 05:35 Calm 10.00 NULL NULL 50.4 50.4 100% 30.03 0.0
05 05:15 Calm 10.00 NULL NULL 51.4 51.4 100% 30.03 0.0
05 04:55 Calm 10.00 NULL NULL 51.3 51.3 100% 30.03 0.0
05 04:35 Calm 10.00 NULL NULL 50.9 50.9 100% 30.03 0.0
05 04:15 Calm 10.00 NULL NULL 51.8 51.8 100% 30.02 0.0
05 03:55 Calm 10.00 NULL NULL 52 52 100% 30.02 0.0
05 03:35 Calm 10.00 NULL NULL 52 52 100% 30.02 0.0
05 03:15 Calm 10.00 NULL NULL 52.9 52.9 100% 30.02 0.0
05 02:55 Calm 10.00 NULL NULL 54.5 54.5 100% 30.02 0.0
05 02:35 Calm 10.00 NULL NULL 56.3 53.8 91% 30.02 0.0
05 02:15 Calm 10.00 NULL NULL 56.7 53.6 90% 30.03 0.0
05 01:55 Calm 10.00 NULL NULL 57.9 53.1 69.1 56.3 84% 30.03 0.0
05 01:35 Calm 10.00 NULL NULL 58.5 52.7 81% 30.04 0.0
05 00:55 Calm 10.00 NULL NULL 56.7 52.9 87% 30.04 0.0
05 00:35 S 3 10.00 NULL NULL 57.2 52.3 84% 30.05 0.0
05 00:15 Calm 10.00 NULL NULL 57.4 52.3 83% 30.05 0.0
04 23:55 Calm 10.00 NULL NULL 58.1 53.1 83% 30.05 0.0
04 23:35 Calm 10.00 NULL NULL 59.5 51.1 74% 30.06 0.0
04 23:15 Calm 10.00 NULL NULL 60.8 50.7 70% 30.06 0.0
04 22:55 Calm 10.00 NULL NULL 61.5 50.4 67% 30.05 0.0
04 22:35 S 6 10.00 NULL NULL 62.4 50.2 64% 30.05 0.0
04 22:15 S 5 10.00 NULL NULL 63.1 50 62% 30.05 0.0
04 21:55 S 5 10.00 NULL NULL 63.9 49.6 60% 30.04 0.0
Date Time (edt) Wind (mph) Vis. (mi.) Weather Sky Cond. Air Dwpt Max. Min. Relative Humidity Wind Chill (°F) Heat Index (°F) altimeter (in) sea level (mb) 1 hr 3 hr 6 hr
6 hour
Temperature (ºF) Pressure Precipitation (in)